sensor_id;sensor_type;location;lat;lon;timestamp;pressure;altitude;pressure_sealevel;temperature;humidity
81352;BME280;70809;52.184;13.422;2023-07-31T00:00:17;100844.59;;;15.27;83.32
81352;BME280;70809;52.184;13.422;2023-07-31T00:01:19;100850.75;;;15.36;82.71
81352;BME280;70809;52.184;13.422;2023-07-31T00:02:20;100835.69;;;15.38;82.82
81352;BME280;70809;52.184;13.422;2023-07-31T00:03:22;100835.69;;;15.37;82.85
81352;BME280;70809;52.184;13.422;2023-07-31T00:04:24;100840.13;;;15.38;83.05
81352;BME280;70809;52.184;13.422;2023-07-31T00:05:25;100829.47;;;15.43;82.79
81352;BME280;70809;52.184;13.422;2023-07-31T00:06:27;100831.19;;;15.50;82.39
81352;BME280;70809;52.184;13.422;2023-07-31T00:07:29;100835.59;;;15.55;82.04
81352;BME280;70809;52.184;13.422;2023-07-31T00:08:32;100837.38;;;15.62;81.71
81352;BME280;70809;52.184;13.422;2023-07-31T00:09:34;100835.53;;;15.69;81.38
81352;BME280;70809;52.184;13.422;2023-07-31T00:10:36;100837.31;;;15.72;80.86
81352;BME280;70809;52.184;13.422;2023-07-31T00:11:38;100828.41;;;15.71;80.24
81352;BME280;70809;52.184;13.422;2023-07-31T00:12:42;100833.75;;;15.70;80.09
81352;BME280;70809;52.184;13.422;2023-07-31T00:13:44;100824.88;;;15.71;79.32
81352;BME280;70809;52.184;13.422;2023-07-31T00:14:46;100817.78;;;15.73;78.90
81352;BME280;70809;52.184;13.422;2023-07-31T00:15:47;100823.13;;;15.68;79.08
81352;BME280;70809;52.184;13.422;2023-07-31T00:16:49;100809.81;;;15.65;79.20
81352;BME280;70809;52.184;13.422;2023-07-31T00:17:53;100816.06;;;15.62;78.93
81352;BME280;70809;52.184;13.422;2023-07-31T00:18:54;100813.41;;;15.62;78.70
81352;BME280;70809;52.184;13.422;2023-07-31T00:19:56;100814.25;;;15.58;78.72
81352;BME280;70809;52.184;13.422;2023-07-31T00:20:58;100810.69;;;15.59;78.45
81352;BME280;70809;52.184;13.422;2023-07-31T00:21:59;100808.97;;;15.55;78.12
81352;BME280;70809;52.184;13.422;2023-07-31T00:23:01;100811.72;;;15.34;78.89
81352;BME280;70809;52.184;13.422;2023-07-31T00:24:04;100818.06;;;15.08;79.61
81352;BME280;70809;52.184;13.422;2023-07-31T00:25:06;100807.50;;;14.78;81.12
81352;BME280;70809;52.184;13.422;2023-07-31T00:26:08;100820.84;;;14.52;82.60
81352;BME280;70809;52.184;13.422;2023-07-31T00:27:10;100821.72;;;14.34;83.13
81352;BME280;70809;52.184;13.422;2023-07-31T00:28:11;100820.84;;;14.40;83.69
81352;BME280;70809;52.184;13.422;2023-07-31T00:29:13;100810.22;;;14.49;83.45
81352;BME280;70809;52.184;13.422;2023-07-31T00:30:15;100828.81;;;14.53;83.19
81352;BME280;70809;52.184;13.422;2023-07-31T00:31:16;100813.72;;;14.65;82.69
81352;BME280;70809;52.184;13.422;2023-07-31T00:32:18;100815.50;;;14.64;82.92
81352;BME280;70809;52.184;13.422;2023-07-31T00:33:20;100815.50;;;14.50;83.21
81352;BME280;70809;52.184;13.422;2023-07-31T00:34:21;100810.16;;;14.33;84.26
81352;BME280;70809;52.184;13.422;2023-07-31T00:35:23;100816.38;;;14.31;84.02
81352;BME280;70809;52.184;13.422;2023-07-31T00:36:26;100816.41;;;14.25;84.27
81352;BME280;70809;52.184;13.422;2023-07-31T00:37:28;100803.97;;;14.27;84.39
81352;BME280;70809;52.184;13.422;2023-07-31T00:38:30;100809.28;;;14.33;84.06
81352;BME280;70809;52.184;13.422;2023-07-31T00:39:35;100799.53;;;14.38;83.61
81352;BME280;70809;52.184;13.422;2023-07-31T00:40:37;100804.88;;;14.38;83.19
81352;BME280;70809;52.184;13.422;2023-07-31T00:41:38;100794.22;;;14.43;82.95
81352;BME280;70809;52.184;13.422;2023-07-31T00:42:40;100795.09;;;14.45;83.39
81352;BME280;70809;52.184;13.422;2023-07-31T00:43:42;100798.66;;;14.42;83.23
81352;BME280;70809;52.184;13.422;2023-07-31T00:44:43;100788.91;;;14.33;83.96
81352;BME280;70809;52.184;13.422;2023-07-31T00:45:45;100782.72;;;14.36;83.75
81352;BME280;70809;52.184;13.422;2023-07-31T00:46:47;100791.56;;;14.44;84.24
81352;BME280;70809;52.184;13.422;2023-07-31T00:47:49;100779.19;;;14.55;83.76
81352;BME280;70809;52.184;13.422;2023-07-31T00:48:52;100773.84;;;14.65;83.61
81352;BME280;70809;52.184;13.422;2023-07-31T00:49:54;100778.31;;;14.53;82.79
81352;BME280;70809;52.184;13.422;2023-07-31T00:50:56;100776.53;;;14.35;83.83
81352;BME280;70809;52.184;13.422;2023-07-31T00:51:58;100767.66;;;14.26;84.56
81352;BME280;70809;52.184;13.422;2023-07-31T00:53:00;100767.66;;;14.26;84.88
81352;BME280;70809;52.184;13.422;2023-07-31T00:54:02;100768.56;;;14.25;85.05
81352;BME280;70809;52.184;13.422;2023-07-31T00:55:06;100770.34;;;14.23;85.27
81352;BME280;70809;52.184;13.422;2023-07-31T00:56:09;100773.88;;;14.25;84.94
81352;BME280;70809;52.184;13.422;2023-07-31T00:57:13;100780.09;;;14.24;84.80
81352;BME280;70809;52.184;13.422;2023-07-31T00:58:14;100769.44;;;14.25;85.10
81352;BME280;70809;52.184;13.422;2023-07-31T00:59:16;100773.00;;;14.29;85.40
81352;BME280;70809;52.184;13.422;2023-07-31T01:00:19;100773.88;;;14.29;85.04
81352;BME280;70809;52.184;13.422;2023-07-31T01:01:21;100772.09;;;14.21;85.57
81352;BME280;70809;52.184;13.422;2023-07-31T01:02:23;100767.66;;;14.21;85.56
81352;BME280;70809;52.184;13.422;2023-07-31T01:03:26;100771.22;;;14.35;85.60
81352;BME280;70809;52.184;13.422;2023-07-31T01:04:28;100760.53;;;14.45;85.22
81352;BME280;70809;52.184;13.422;2023-07-31T01:05:39;100758.81;;;14.54;85.05
81352;BME280;70809;52.184;13.422;2023-07-31T01:06:48;100753.47;;;14.64;84.07
81352;BME280;70809;52.184;13.422;2023-07-31T01:07:59;100752.56;;;14.68;84.19
81352;BME280;70809;52.184;13.422;2023-07-31T01:09:10;100757.88;;;14.68;84.09
81352;BME280;70809;52.184;13.422;2023-07-31T01:10:16;100755.19;;;14.77;83.95
81352;BME280;70809;52.184;13.422;2023-07-31T01:11:26;100752.50;;;14.84;83.27
81352;BME280;70809;52.184;13.422;2023-07-31T01:12:30;100752.50;;;14.92;83.15
81352;BME280;70809;52.184;13.422;2023-07-31T01:13:32;100754.25;;;14.95;82.88
81352;BME280;70809;52.184;13.422;2023-07-31T01:14:34;100765.78;;;14.94;82.99
81352;BME280;70809;52.184;13.422;2023-07-31T01:15:36;100752.50;;;14.87;83.42
81352;BME280;70809;52.184;13.422;2023-07-31T01:16:38;100746.31;;;14.85;83.43
81352;BME280;70809;52.184;13.422;2023-07-31T01:17:41;100752.50;;;14.83;83.72
81352;BME280;70809;52.184;13.422;2023-07-31T01:18:44;100744.53;;;14.78;83.89
81352;BME280;70809;52.184;13.422;2023-07-31T01:19:46;100742.78;;;14.77;84.20
81352;BME280;70809;52.184;13.422;2023-07-31T01:20:54;100740.09;;;14.88;84.20
81352;BME280;70809;52.184;13.422;2023-07-31T01:22:23;100739.13;;;15.01;83.75
81352;BME280;70809;52.184;13.422;2023-07-31T01:23:48;100748.00;;;15.05;83.69
81352;BME280;70809;52.184;13.422;2023-07-31T01:25:00;100740.00;;;15.05;83.78
81352;BME280;70809;52.184;13.422;2023-07-31T01:26:11;100745.34;;;15.00;83.66
81352;BME280;70809;52.184;13.422;2023-07-31T01:27:15;100736.50;;;14.95;83.57
81352;BME280;70809;52.184;13.422;2023-07-31T01:28:20;100739.19;;;14.97;83.43
81352;BME280;70809;52.184;13.422;2023-07-31T01:29:33;100735.59;;;15.04;83.46
81352;BME280;70809;52.184;13.422;2023-07-31T01:30:43;100732.91;;;15.07;83.11
81352;BME280;70809;52.184;13.422;2023-07-31T01:31:48;100733.78;;;15.10;83.23
81352;BME280;70809;52.184;13.422;2023-07-31T01:32:51;100733.75;;;15.15;83.26
81352;BME280;70809;52.184;13.422;2023-07-31T01:33:57;100732.91;;;15.02;83.75
81352;BME280;70809;52.184;13.422;2023-07-31T01:35:00;100727.63;;;14.95;84.51
81352;BME280;70809;52.184;13.422;2023-07-31T01:36:02;100734.72;;;14.96;84.59
81352;BME280;70809;52.184;13.422;2023-07-31T01:37:04;100734.72;;;15.03;84.55
81352;BME280;70809;52.184;13.422;2023-07-31T01:38:06;100739.97;;;15.12;84.13
81352;BME280;70809;52.184;13.422;2023-07-31T01:39:08;100733.72;;;15.18;84.13
81352;BME280;70809;52.184;13.422;2023-07-31T01:40:10;100731.06;;;15.23;83.93
81352;BME280;70809;52.184;13.422;2023-07-31T01:41:13;100738.16;;;15.21;84.12
81352;BME280;70809;52.184;13.422;2023-07-31T01:42:15;100733.72;;;15.21;84.25
81352;BME280;70809;52.184;13.422;2023-07-31T01:43:17;100730.13;;;15.25;84.29
81352;BME280;70809;52.184;13.422;2023-07-31T01:44:19;100727.44;;;15.30;84.24
81352;BME280;70809;52.184;13.422;2023-07-31T01:45:20;100737.22;;;15.25;83.88
81352;BME280;70809;52.184;13.422;2023-07-31T01:46:22;100737.38;;;15.00;85.38
81352;BME280;70809;52.184;13.422;2023-07-31T01:47:24;100738.19;;;15.11;85.32
81352;BME280;70809;52.184;13.422;2023-07-31T01:48:26;100736.41;;;15.13;85.16
81352;BME280;70809;52.184;13.422;2023-07-31T01:49:27;100739.00;;;15.24;85.08
81352;BME280;70809;52.184;13.422;2023-07-31T01:50:29;100731.91;;;15.25;84.87
81352;BME280;70809;52.184;13.422;2023-07-31T01:51:31;100738.13;;;15.24;84.73
81352;BME280;70809;52.184;13.422;2023-07-31T01:52:32;100739.94;;;15.22;84.91
81352;BME280;70809;52.184;13.422;2023-07-31T01:53:34;100733.69;;;15.24;84.98
81352;BME280;70809;52.184;13.422;2023-07-31T01:54:36;100730.97;;;15.35;85.21
81352;BME280;70809;52.184;13.422;2023-07-31T01:55:37;100727.38;;;15.42;84.63
81352;BME280;70809;52.184;13.422;2023-07-31T01:56:41;100737.13;;;15.46;84.52
81352;BME280;70809;52.184;13.422;2023-07-31T01:57:44;100727.31;;;15.51;83.98
81352;BME280;70809;52.184;13.422;2023-07-31T01:58:45;100729.97;;;15.54;83.75
81352;BME280;70809;52.184;13.422;2023-07-31T01:59:47;100729.06;;;15.54;83.70
81352;BME280;70809;52.184;13.422;2023-07-31T02:00:49;100730.84;;;15.53;84.05
81352;BME280;70809;52.184;13.422;2023-07-31T02:01:51;100735.25;;;15.62;83.76
81352;BME280;70809;52.184;13.422;2023-07-31T02:02:55;100725.50;;;15.62;83.18
81352;BME280;70809;52.184;13.422;2023-07-31T02:03:58;100724.66;;;15.54;83.46
81352;BME280;70809;52.184;13.422;2023-07-31T02:04:59;100725.50;;;15.61;83.38
81352;BME280;70809;52.184;13.422;2023-07-31T02:06:01;100726.41;;;15.60;83.31
81352;BME280;70809;52.184;13.422;2023-07-31T02:07:03;100730.84;;;15.56;83.25
81352;BME280;70809;52.184;13.422;2023-07-31T02:08:05;100721.03;;;15.61;83.30
81352;BME280;70809;52.184;13.422;2023-07-31T02:09:07;100725.47;;;15.69;83.03
81352;BME280;70809;52.184;13.422;2023-07-31T02:10:09;100726.38;;;15.68;82.95
81352;BME280;70809;52.184;13.422;2023-07-31T02:11:10;100723.72;;;15.58;83.04
81352;BME280;70809;52.184;13.422;2023-07-31T02:12:13;100725.50;;;15.61;83.66
81352;BME280;70809;52.184;13.422;2023-07-31T02:13:15;100723.69;;;15.68;83.41
81352;BME280;70809;52.184;13.422;2023-07-31T02:14:17;100720.94;;;15.77;83.11
81352;BME280;70809;52.184;13.422;2023-07-31T02:15:18;100728.03;;;15.79;82.64
81352;BME280;70809;52.184;13.422;2023-07-31T02:16:20;100717.41;;;15.75;82.43
81352;BME280;70809;52.184;13.422;2023-07-31T02:17:22;100717.50;;;15.67;82.56
81352;BME280;70809;52.184;13.422;2023-07-31T02:18:23;100728.16;;;15.67;82.93
81352;BME280;70809;52.184;13.422;2023-07-31T02:19:25;100719.25;;;15.62;82.99
81352;BME280;70809;52.184;13.422;2023-07-31T02:20:27;100713.94;;;15.66;82.82
81352;BME280;70809;52.184;13.422;2023-07-31T02:21:28;100713.88;;;15.74;82.28
81352;BME280;70809;52.184;13.422;2023-07-31T02:22:30;100714.72;;;15.81;82.35
81352;BME280;70809;52.184;13.422;2023-07-31T02:23:32;100711.13;;;15.85;81.96
81352;BME280;70809;52.184;13.422;2023-07-31T02:24:33;100713.75;;;15.89;81.83
81352;BME280;70809;52.184;13.422;2023-07-31T02:25:35;100710.19;;;15.90;81.73
81352;BME280;70809;52.184;13.422;2023-07-31T02:26:36;100713.75;;;15.89;82.15
81352;BME280;70809;52.184;13.422;2023-07-31T02:27:40;100709.41;;;15.78;81.98
81352;BME280;70809;52.184;13.422;2023-07-31T02:28:41;100711.19;;;15.79;82.25
81352;BME280;70809;52.184;13.422;2023-07-31T02:29:43;100700.50;;;15.83;81.95
81352;BME280;70809;52.184;13.422;2023-07-31T02:30:46;100701.34;;;15.87;81.96
81352;BME280;70809;52.184;13.422;2023-07-31T02:31:48;100696.00;;;15.90;81.71
81352;BME280;70809;52.184;13.422;2023-07-31T02:32:51;100703.97;;;15.90;81.85
81352;BME280;70809;52.184;13.422;2023-07-31T02:33:53;100710.16;;;15.92;81.69
81352;BME280;70809;52.184;13.422;2023-07-31T02:34:55;100703.97;;;15.90;81.32
81352;BME280;70809;52.184;13.422;2023-07-31T02:35:57;100704.03;;;15.84;82.03
81352;BME280;70809;52.184;13.422;2023-07-31T02:36:58;100709.31;;;15.87;82.15
81352;BME280;70809;52.184;13.422;2023-07-31T02:38:00;100701.34;;;15.87;82.49
81352;BME280;70809;52.184;13.422;2023-07-31T02:39:02;100709.38;;;15.81;82.28
81352;BME280;70809;52.184;13.422;2023-07-31T02:40:04;100704.91;;;15.84;82.15
81352;BME280;70809;52.184;13.422;2023-07-31T02:41:06;100699.53;;;15.90;82.18
81352;BME280;70809;52.184;13.422;2023-07-31T02:42:08;100692.47;;;15.86;81.50
81352;BME280;70809;52.184;13.422;2023-07-31T02:43:11;100696.94;;;15.83;82.13
81352;BME280;70809;52.184;13.422;2023-07-31T02:44:13;100694.28;;;15.80;82.82
81352;BME280;70809;52.184;13.422;2023-07-31T02:45:14;100692.56;;;15.77;82.35
81352;BME280;70809;52.184;13.422;2023-07-31T02:46:16;100695.38;;;15.51;82.81
81352;BME280;70809;52.184;13.422;2023-07-31T02:47:18;100697.97;;;15.60;83.40
81352;BME280;70809;52.184;13.422;2023-07-31T02:48:20;100699.81;;;15.48;83.78
81352;BME280;70809;52.184;13.422;2023-07-31T02:49:22;100699.00;;;15.41;84.23
81352;BME280;70809;52.184;13.422;2023-07-31T02:50:24;100707.97;;;15.28;84.11
81352;BME280;70809;52.184;13.422;2023-07-31T02:51:25;100704.38;;;15.30;84.14
81352;BME280;70809;52.184;13.422;2023-07-31T02:52:27;100695.59;;;15.21;84.47
81352;BME280;70809;52.184;13.422;2023-07-31T02:53:29;100704.47;;;15.13;84.55
81352;BME280;70809;52.184;13.422;2023-07-31T02:54:31;100696.50;;;15.13;84.16
81352;BME280;70809;52.184;13.422;2023-07-31T02:55:33;100700.06;;;15.14;84.27
81352;BME280;70809;52.184;13.422;2023-07-31T02:56:34;100706.28;;;15.11;83.86
81352;BME280;70809;52.184;13.422;2023-07-31T02:57:36;100695.63;;;15.11;84.70
81352;BME280;70809;52.184;13.422;2023-07-31T02:58:39;100696.50;;;15.17;83.49
81352;BME280;70809;52.184;13.422;2023-07-31T02:59:41;100702.63;;;15.28;83.68
81352;BME280;70809;52.184;13.422;2023-07-31T03:00:43;100704.41;;;15.29;83.83
81352;BME280;70809;52.184;13.422;2023-07-31T03:01:45;100691.94;;;15.37;83.81
81352;BME280;70809;52.184;13.422;2023-07-31T03:02:46;100697.28;;;15.34;83.32
81352;BME280;70809;52.184;13.422;2023-07-31T03:03:48;100699.13;;;15.18;83.70
81352;BME280;70809;52.184;13.422;2023-07-31T03:04:51;100698.25;;;15.18;84.42
81352;BME280;70809;52.184;13.422;2023-07-31T03:05:54;100694.75;;;15.08;84.97
81352;BME280;70809;52.184;13.422;2023-07-31T03:06:58;100692.94;;;15.13;84.97
81352;BME280;70809;52.184;13.422;2023-07-31T03:08:02;100692.94;;;15.13;84.98
81352;BME280;70809;52.184;13.422;2023-07-31T03:09:04;100687.59;;;15.18;84.04
81352;BME280;70809;52.184;13.422;2023-07-31T03:10:09;100686.63;;;15.37;84.47
81352;BME280;70809;52.184;13.422;2023-07-31T03:11:10;100692.75;;;15.45;83.75
81352;BME280;70809;52.184;13.422;2023-07-31T03:12:13;100693.56;;;15.56;84.51
81352;BME280;70809;52.184;13.422;2023-07-31T03:13:15;100690.06;;;15.47;83.72
81352;BME280;70809;52.184;13.422;2023-07-31T03:14:18;100694.59;;;15.31;84.58
81352;BME280;70809;52.184;13.422;2023-07-31T03:15:20;100685.75;;;15.30;84.64
81352;BME280;70809;52.184;13.422;2023-07-31T03:16:22;100689.38;;;15.19;85.23
81352;BME280;70809;52.184;13.422;2023-07-31T03:17:25;100697.22;;;15.40;84.94
81352;BME280;70809;52.184;13.422;2023-07-31T03:18:26;100697.22;;;15.40;85.09
81352;BME280;70809;52.184;13.422;2023-07-31T03:19:30;100686.47;;;15.55;85.48
81352;BME280;70809;52.184;13.422;2023-07-31T03:20:32;100691.94;;;15.35;84.60
81352;BME280;70809;52.184;13.422;2023-07-31T03:21:34;100689.16;;;15.52;84.84
81352;BME280;70809;52.184;13.422;2023-07-31T03:22:36;100689.91;;;15.74;84.60
81352;BME280;70809;52.184;13.422;2023-07-31T03:23:38;100686.44;;;15.58;83.37
81352;BME280;70809;52.184;13.422;2023-07-31T03:24:40;100686.53;;;15.49;84.12
81352;BME280;70809;52.184;13.422;2023-07-31T03:25:55;100686.69;;;15.23;85.58
81352;BME280;70809;52.184;13.422;2023-07-31T03:27:00;100687.44;;;15.42;86.00
81352;BME280;70809;52.184;13.422;2023-07-31T03:28:02;100687.41;;;15.50;84.66
81352;BME280;70809;52.184;13.422;2023-07-31T03:29:04;100677.59;;;15.56;84.13
81352;BME280;70809;52.184;13.422;2023-07-31T03:30:08;100684.69;;;15.57;83.79
81352;BME280;70809;52.184;13.422;2023-07-31T03:31:11;100682.00;;;15.66;83.91
81352;BME280;70809;52.184;13.422;2023-07-31T03:32:12;100679.34;;;15.63;83.86
81352;BME280;70809;52.184;13.422;2023-07-31T03:33:14;100681.16;;;15.55;84.37
81352;BME280;70809;52.184;13.422;2023-07-31T03:34:16;100682.97;;;15.47;84.43
81352;BME280;70809;52.184;13.422;2023-07-31T03:35:18;100678.47;;;15.57;84.46
81352;BME280;70809;52.184;13.422;2023-07-31T03:36:20;100675.84;;;15.52;83.94
81352;BME280;70809;52.184;13.422;2023-07-31T03:37:25;100679.28;;;15.73;84.36
81352;BME280;70809;52.184;13.422;2023-07-31T03:38:27;100675.59;;;15.86;84.24
81352;BME280;70809;52.184;13.422;2023-07-31T03:39:29;100669.28;;;15.96;84.01
81352;BME280;70809;52.184;13.422;2023-07-31T03:40:30;100674.56;;;15.99;84.08
81352;BME280;70809;52.184;13.422;2023-07-31T03:41:33;100674.50;;;16.08;84.01
81352;BME280;70809;52.184;13.422;2023-07-31T03:42:34;100673.56;;;16.14;83.98
81352;BME280;70809;52.184;13.422;2023-07-31T03:43:36;100672.63;;;16.18;83.03
81352;BME280;70809;52.184;13.422;2023-07-31T03:44:38;100673.47;;;16.22;82.93
81352;BME280;70809;52.184;13.422;2023-07-31T03:45:41;100671.63;;;16.27;82.90
81352;BME280;70809;52.184;13.422;2023-07-31T03:46:42;100676.16;;;16.20;82.32
81352;BME280;70809;52.184;13.422;2023-07-31T03:47:44;100673.63;;;16.06;83.57
81352;BME280;70809;52.184;13.422;2023-07-31T03:48:46;100676.31;;;16.03;83.97
81352;BME280;70809;52.184;13.422;2023-07-31T03:49:47;100671.88;;;16.02;83.82
81352;BME280;70809;52.184;13.422;2023-07-31T03:50:49;100671.03;;;16.00;83.49
81352;BME280;70809;52.184;13.422;2023-07-31T03:51:51;100673.69;;;16.00;83.51
81352;BME280;70809;52.184;13.422;2023-07-31T03:52:52;100666.50;;;16.05;84.04
81352;BME280;70809;52.184;13.422;2023-07-31T03:53:54;100667.34;;;16.10;83.80
81352;BME280;70809;52.184;13.422;2023-07-31T03:54:56;100677.22;;;16.02;83.15
81352;BME280;70809;52.184;13.422;2023-07-31T03:55:57;100668.31;;;16.03;83.90
81352;BME280;70809;52.184;13.422;2023-07-31T03:56:59;100664.72;;;16.09;83.82
81352;BME280;70809;52.184;13.422;2023-07-31T03:58:00;100666.44;;;16.14;83.61
81352;BME280;70809;52.184;13.422;2023-07-31T03:59:02;100668.19;;;16.18;83.28
81352;BME280;70809;52.184;13.422;2023-07-31T04:00:05;100673.53;;;16.15;83.40
81352;BME280;70809;52.184;13.422;2023-07-31T04:01:14;100669.97;;;16.16;83.00
81352;BME280;70809;52.184;13.422;2023-07-31T04:02:15;100668.38;;;16.00;83.69
81352;BME280;70809;52.184;13.422;2023-07-31T04:03:17;100673.78;;;15.89;83.82
81352;BME280;70809;52.184;13.422;2023-07-31T04:04:18;100675.59;;;15.86;84.20
81352;BME280;70809;52.184;13.422;2023-07-31T04:05:20;100669.31;;;15.95;84.11
81352;BME280;70809;52.184;13.422;2023-07-31T04:06:22;100671.94;;;15.96;84.01
81352;BME280;70809;52.184;13.422;2023-07-31T04:07:23;100669.25;;;15.99;84.29
81352;BME280;70809;52.184;13.422;2023-07-31T04:08:25;100663.91;;;16.02;83.83
81352;BME280;70809;52.184;13.422;2023-07-31T04:09:27;100660.34;;;16.02;83.40
81352;BME280;70809;52.184;13.422;2023-07-31T04:10:29;100660.34;;;16.02;83.67
81352;BME280;70809;52.184;13.422;2023-07-31T04:11:30;100659.50;;;15.98;83.30
81352;BME280;70809;52.184;13.422;2023-07-31T04:12:32;100659.50;;;15.97;83.65
81352;BME280;70809;52.184;13.422;2023-07-31T04:13:34;100654.13;;;16.01;83.39
81352;BME280;70809;52.184;13.422;2023-07-31T04:14:35;100663.91;;;16.02;82.99
81352;BME280;70809;52.184;13.422;2023-07-31T04:15:39;100654.97;;;16.05;83.17
81352;BME280;70809;52.184;13.422;2023-07-31T04:16:42;100652.38;;;16.00;83.21
81352;BME280;70809;52.184;13.422;2023-07-31T04:17:44;100649.78;;;15.91;83.25
81352;BME280;70809;52.184;13.422;2023-07-31T04:18:46;100657.78;;;15.91;83.20
81352;BME280;70809;52.184;13.422;2023-07-31T04:19:48;100650.69;;;15.90;83.83
81352;BME280;70809;52.184;13.422;2023-07-31T04:20:50;100660.50;;;15.85;84.10
81352;BME280;70809;52.184;13.422;2023-07-31T04:21:52;100652.53;;;15.85;83.93
81352;BME280;70809;52.184;13.422;2023-07-31T04:22:53;100651.63;;;15.84;83.75
81352;BME280;70809;52.184;13.422;2023-07-31T04:23:55;100656.94;;;15.89;83.39
81352;BME280;70809;52.184;13.422;2023-07-31T04:24:57;100654.28;;;15.86;83.68
81352;BME280;70809;52.184;13.422;2023-07-31T04:26:00;100653.38;;;15.90;83.55
81352;BME280;70809;52.184;13.422;2023-07-31T04:27:02;100647.16;;;15.88;83.69
81352;BME280;70809;52.184;13.422;2023-07-31T04:28:04;100653.31;;;15.93;83.79
81352;BME280;70809;52.184;13.422;2023-07-31T04:29:07;100648.84;;;15.97;83.48
81352;BME280;70809;52.184;13.422;2023-07-31T04:30:09;100645.31;;;15.96;83.15
81352;BME280;70809;52.184;13.422;2023-07-31T04:31:11;100649.75;;;15.94;83.56
81352;BME280;70809;52.184;13.422;2023-07-31T04:32:14;100644.47;;;15.91;83.73
81352;BME280;70809;52.184;13.422;2023-07-31T04:33:15;100641.88;;;15.82;84.11
81352;BME280;70809;52.184;13.422;2023-07-31T04:34:17;100651.63;;;15.86;84.32
81352;BME280;70809;52.184;13.422;2023-07-31T04:35:18;100653.41;;;15.84;83.98
81352;BME280;70809;52.184;13.422;2023-07-31T04:36:23;100660.53;;;15.83;84.19
81352;BME280;70809;52.184;13.422;2023-07-31T04:37:26;100644.56;;;15.80;83.71
81352;BME280;70809;52.184;13.422;2023-07-31T04:38:27;100650.72;;;15.85;84.27
81352;BME280;70809;52.184;13.422;2023-07-31T04:39:29;100642.69;;;15.91;83.83
81352;BME280;70809;52.184;13.422;2023-07-31T04:40:31;100655.09;;;15.96;83.78
81352;BME280;70809;52.184;13.422;2023-07-31T04:41:33;100651.47;;;16.00;83.88
81352;BME280;70809;52.184;13.422;2023-07-31T04:42:35;100640.72;;;16.09;83.48
81352;BME280;70809;52.184;13.422;2023-07-31T04:43:37;100639.78;;;16.11;82.52
81352;BME280;70809;52.184;13.422;2023-07-31T04:44:39;100644.25;;;16.12;82.40
81352;BME280;70809;52.184;13.422;2023-07-31T04:45:42;100644.19;;;16.17;82.53
81352;BME280;70809;52.184;13.422;2023-07-31T04:46:46;100639.78;;;16.14;82.28
81352;BME280;70809;52.184;13.422;2023-07-31T04:47:49;100638.88;;;16.15;82.00
81352;BME280;70809;52.184;13.422;2023-07-31T04:48:51;100633.53;;;16.17;81.85
81352;BME280;70809;52.184;13.422;2023-07-31T04:49:53;100639.78;;;16.11;82.36
81352;BME280;70809;52.184;13.422;2023-07-31T04:50:56;100634.44;;;16.17;82.73
81352;BME280;70809;52.184;13.422;2023-07-31T04:51:58;100629.97;;;16.18;82.21
81352;BME280;70809;52.184;13.422;2023-07-31T04:53:00;100628.16;;;16.22;81.96
81352;BME280;70809;52.184;13.422;2023-07-31T04:54:01;100629.94;;;16.21;82.69
81352;BME280;70809;52.184;13.422;2023-07-31T04:55:04;100631.75;;;16.16;82.32
81352;BME280;70809;52.184;13.422;2023-07-31T04:56:05;100631.75;;;16.19;82.52
81352;BME280;70809;52.184;13.422;2023-07-31T04:57:07;100634.38;;;16.24;81.77
81352;BME280;70809;52.184;13.422;2023-07-31T04:58:09;100632.09;;;15.82;81.95
81352;BME280;70809;52.184;13.422;2023-07-31T04:59:11;100632.03;;;15.91;82.78
81352;BME280;70809;52.184;13.422;2023-07-31T05:00:13;100627.44;;;16.06;83.51
81352;BME280;70809;52.184;13.422;2023-07-31T05:01:15;100637.13;;;16.14;83.10
81352;BME280;70809;52.184;13.422;2023-07-31T05:02:17;100640.63;;;16.19;82.84
81352;BME280;70809;52.184;13.422;2023-07-31T05:03:20;100627.56;;;15.92;83.07
81352;BME280;70809;52.184;13.422;2023-07-31T05:04:22;100635.69;;;15.83;82.83
81352;BME280;70809;52.184;13.422;2023-07-31T05:05:23;100631.97;;;15.96;83.17
81352;BME280;70809;52.184;13.422;2023-07-31T05:06:29;100635.44;;;16.06;83.87
81352;BME280;70809;52.184;13.422;2023-07-31T05:07:32;100630.25;;;15.92;83.06
81352;BME280;70809;52.184;13.422;2023-07-31T05:08:36;100634.59;;;15.99;83.83
81352;BME280;70809;52.184;13.422;2023-07-31T05:09:37;100629.56;;;15.72;84.83
81352;BME280;70809;52.184;13.422;2023-07-31T05:10:39;100633.81;;;15.88;84.51
81352;BME280;70809;52.184;13.422;2023-07-31T05:11:41;100642.72;;;15.87;84.03
81352;BME280;70809;52.184;13.422;2023-07-31T05:12:43;100631.38;;;15.62;84.19
81352;BME280;70809;52.184;13.422;2023-07-31T05:13:45;100634.13;;;15.48;85.22
81352;BME280;70809;52.184;13.422;2023-07-31T05:14:47;100651.25;;;15.17;86.30
81352;BME280;70809;52.184;13.422;2023-07-31T05:15:48;100635.28;;;15.20;87.52
81352;BME280;70809;52.184;13.422;2023-07-31T05:16:50;100643.19;;;15.27;87.23
81352;BME280;70809;52.184;13.422;2023-07-31T05:17:52;100650.44;;;15.05;86.79
81352;BME280;70809;52.184;13.422;2023-07-31T05:18:55;100639.69;;;15.18;86.99
81352;BME280;70809;52.184;13.422;2023-07-31T05:19:57;100631.72;;;15.21;86.97
81352;BME280;70809;52.184;13.422;2023-07-31T05:20:59;100637.94;;;15.18;86.06
81352;BME280;70809;52.184;13.422;2023-07-31T05:22:00;100627.22;;;15.29;87.08
81352;BME280;70809;52.184;13.422;2023-07-31T05:23:02;100640.50;;;15.33;86.17